Terminal Aerodrome Forecast
Issued by NWS

Home | Current Version | Previous Version | Text Only | Print | Product List | Glossary On
Versions: 1 2 3 4 5 6 7 8 9 10 11 12 13 14 15 16 17 18 19
000
FTUS46 KMFR 181100
TAFOTH
TAF
KOTH 181120Z 1812/1912 VRB03KT P6SM -SHRA SCT025 OVC050
     FM182100 29007KT P6SM SCT025 BKN050
     FM190200 VRB03KT P6SM OVC020=

USA.gov is the U.S. government's official web portal to all federal, state and local government web resources and services.